createdAt,value
2023-01-20T00:01:26.963Z,96886.84
2023-01-20T00:03:55.706Z,96886.84
2023-01-20T00:06:24.102Z,96891.72
2023-01-20T00:08:51.921Z,96895.63
2023-01-20T00:11:19.396Z,96899.28
2023-01-20T00:13:46.238Z,96900.47
2023-01-20T00:16:13.696Z,96903.41
2023-01-20T00:18:41.116Z,96904.38
2023-01-20T00:21:11.032Z,96908.28
2023-01-20T00:23:38.710Z,96904.88
2023-01-20T00:26:10.235Z,96903.41
2023-01-20T00:28:36.935Z,96909.47
2023-01-20T00:31:30.741Z,96909.97
2023-01-20T00:34:01.036Z,96909.00
2023-01-20T00:36:31.380Z,96911.72
2023-01-20T00:38:58.617Z,96902.69
2023-01-20T00:41:25.241Z,96911.94
2023-01-20T00:43:51.881Z,96905.88
2023-01-20T00:46:18.751Z,96909.03
2023-01-20T00:48:45.432Z,96904.41
2023-01-20T00:51:12.771Z,96906.38
2023-01-20T00:53:39.614Z,96912.91
2023-01-20T00:56:07.170Z,96914.88
2023-01-20T00:58:34.096Z,96915.38
2023-01-20T01:01:01.443Z,96917.78
2023-01-20T01:03:28.672Z,96931.16
2023-01-20T01:06:04.954Z,96937.03
2023-01-20T01:08:31.566Z,96938.72
2023-01-20T01:10:58.225Z,96943.84
2023-01-20T01:13:24.871Z,96958.41
2023-01-20T01:15:51.555Z,96964.50
2023-01-20T01:18:18.251Z,96961.34
2023-01-20T01:20:45.095Z,96969.88
2023-01-20T01:23:12.627Z,96970.34
2023-01-20T01:25:39.370Z,96974.00
2023-01-20T01:28:06.029Z,96974.00
2023-01-20T01:30:32.876Z,96977.19
2023-01-20T01:32:59.530Z,96987.16
2023-01-20T01:35:26.146Z,96977.19
2023-01-20T01:37:52.791Z,96983.50
2023-01-20T01:40:19.493Z,96979.88
2023-01-20T01:42:46.107Z,96978.16
2023-01-20T01:45:24.823Z,96996.41
2023-01-20T01:48:09.924Z,96984.97
2023-01-20T01:50:58.621Z,97002.72
2023-01-20T01:53:27.563Z,96991.28
2023-01-20T01:55:58.623Z,96995.66
2023-01-20T01:58:30.783Z,96996.66
2023-01-20T02:00:57.489Z,96994.72
2023-01-20T02:03:27.188Z,96994.94
2023-01-20T02:05:55.037Z,96996.41
2023-01-20T02:08:21.809Z,96990.06
2023-01-20T02:10:48.450Z,96988.84
2023-01-20T02:13:15.210Z,96995.44
2023-01-20T02:15:52.582Z,96998.09
2023-01-20T02:19:20.643Z,97000.53
2023-01-20T02:22:30.321Z,96992.75
2023-01-20T02:26:04.370Z,96990.81
2023-01-20T02:29:02.485Z,96983.25
2023-01-20T03:00:40.335Z,97000.78
2023-01-20T03:03:11.909Z,97009.06
2023-01-20T03:05:45.852Z,96999.56
2023-01-20T03:08:16.093Z,97005.66
2023-01-20T03:10:43.078Z,96986.16
2023-01-20T03:13:22.236Z,96997.59
2023-01-20T03:16:17.585Z,96997.34
2023-01-20T03:18:44.893Z,96990.53
2023-01-20T03:21:13.117Z,96976.66
2023-01-20T03:23:45.438Z,96979.84
2023-01-20T03:26:14.605Z,96977.16
2023-01-20T03:28:45.734Z,96980.81
2023-01-20T03:31:40.993Z,96988.63
2023-01-20T03:34:17.119Z,96987.91
2023-01-20T03:36:45.806Z,96992.75
2023-01-20T03:39:13.017Z,97001.25
2023-01-20T03:42:21.327Z,97005.16
2023-01-20T03:45:24.414Z,97007.59
2023-01-20T03:47:59.194Z,97001.03
2023-01-20T03:50:39.766Z,96999.31
2023-01-20T03:53:31.961Z,96994.44
2023-01-20T03:56:12.537Z,96994.47
2023-01-20T03:58:43.586Z,96996.66
2023-01-20T04:01:17.814Z,97003.00
2023-01-20T04:03:47.592Z,96997.38
2023-01-20T04:06:16.337Z,97008.56
2023-01-20T04:08:48.232Z,97012.97
2023-01-20T04:11:15.012Z,97001.50
2023-01-20T04:13:41.680Z,97016.38
2023-01-20T04:16:17.563Z,97012.97
2023-01-20T04:18:48.797Z,97019.53
2023-01-20T04:21:28.588Z,97015.16
2023-01-20T04:24:07.693Z,97020.28
2023-01-20T04:26:34.376Z,97025.59
2023-01-20T04:29:09.783Z,97024.88
2023-01-20T04:31:38.241Z,97025.38
2023-01-20T04:34:05.431Z,97024.88
2023-01-20T04:36:32.102Z,97025.38
2023-01-20T04:38:58.798Z,97023.19
2023-01-20T04:41:25.481Z,97024.91
2023-01-20T04:43:52.126Z,97027.34
2023-01-20T04:46:19.046Z,97034.63
2023-01-20T04:48:46.330Z,97040.72
2023-01-20T04:51:13.760Z,97043.41
2023-01-20T04:53:40.944Z,97046.06
2023-01-20T04:56:15.287Z,97042.19
2023-01-20T04:58:42.721Z,97039.50
2023-01-20T05:01:09.691Z,97044.13
2023-01-20T05:03:37.131Z,97044.09
2023-01-20T05:06:04.041Z,97042.66
2023-01-20T05:08:30.674Z,97045.56
2023-01-20T05:10:57.350Z,97046.09
2023-01-20T05:13:24.050Z,97045.34
2023-01-20T05:15:50.652Z,97054.09
2023-01-20T05:18:17.271Z,97047.53
2023-01-20T05:20:48.534Z,97048.28
2023-01-20T05:23:16.399Z,97053.13
2023-01-20T05:25:43.240Z,97067.75
2023-01-20T05:28:09.970Z,97067.75
2023-01-20T05:30:36.645Z,97079.19
2023-01-20T05:33:03.300Z,97077.75
2023-01-20T05:35:29.970Z,97073.63
2023-01-20T05:37:57.116Z,97078.00
2023-01-20T05:40:23.816Z,97076.78
2023-01-20T05:42:50.522Z,97091.63
2023-01-20T05:45:17.479Z,97084.56
2023-01-20T05:47:44.289Z,97090.41
2023-01-20T05:50:12.137Z,97093.34
2023-01-20T05:52:38.860Z,97096.25
2023-01-20T05:55:05.950Z,97095.53
2023-01-20T05:57:32.604Z,97098.94
2023-01-20T05:59:59.252Z,97103.56
2023-01-20T06:02:25.960Z,97105.75
2023-01-20T06:04:52.620Z,97110.38
2023-01-20T06:07:19.239Z,97102.34
2023-01-20T06:09:45.899Z,97114.53
2023-01-20T06:12:12.683Z,97118.19
2023-01-20T06:14:39.327Z,97128.19
2023-01-20T06:17:05.896Z,97130.09
2023-01-20T06:19:32.511Z,97135.72
2023-01-20T06:21:59.215Z,97135.47
2023-01-20T06:24:25.852Z,97135.97
2023-01-20T06:26:52.719Z,97147.41
2023-01-20T06:29:19.502Z,97152.03
2023-01-20T06:31:46.821Z,97151.78
2023-01-20T06:34:14.129Z,97156.91
2023-01-20T06:36:40.830Z,97157.84
2023-01-20T06:39:07.461Z,97161.47
2023-01-20T06:41:34.339Z,97167.53
2023-01-20T06:44:01.095Z,97164.66
2023-01-20T06:46:27.801Z,97170.03
2023-01-20T06:49:00.418Z,97176.41
2023-01-20T06:51:29.782Z,97182.22
2023-01-20T06:53:56.908Z,97185.88
2023-01-20T06:56:24.054Z,97193.72
2023-01-20T06:58:51.212Z,97191.25
2023-01-20T07:01:23.131Z,97195.66
2023-01-20T07:03:50.200Z,97205.91
2023-01-20T07:06:38.550Z,97202.25
2023-01-20T07:09:10.552Z,97198.84
2023-01-20T07:11:37.331Z,97203.00
2023-01-20T07:14:05.467Z,97205.91
2023-01-20T07:16:32.809Z,97205.69
2023-01-20T07:18:59.825Z,97199.34
2023-01-20T07:21:26.801Z,97208.13
2023-01-20T07:23:53.916Z,97204.47
2023-01-20T07:26:23.140Z,97209.09
2023-01-20T07:28:49.936Z,97208.34
2023-01-20T07:31:22.565Z,97201.28
2023-01-20T07:33:50.437Z,97205.91
2023-01-20T07:36:18.069Z,97202.97
2023-01-20T07:38:48.663Z,97203.72
2023-01-20T07:41:19.778Z,97215.66
2023-01-20T07:43:48.717Z,97218.13
2023-01-20T07:46:15.377Z,97212.25
2023-01-20T07:48:42.459Z,97210.06
2023-01-20T07:51:11.511Z,97213.72
2023-01-20T07:53:46.673Z,97221.03
2023-01-20T07:56:25.162Z,97224.94
2023-01-20T07:58:53.668Z,97224.94
2023-01-20T08:01:31.394Z,97223.97
2023-01-20T08:04:02.683Z,97231.25
2023-01-20T08:06:29.852Z,97233.22
2023-01-20T08:09:00.595Z,97230.78
2023-01-20T08:11:27.376Z,97235.91
2023-01-20T08:13:54.247Z,97233.72
2023-01-20T08:16:21.188Z,97239.81
2023-01-20T08:18:48.014Z,97249.09
2023-01-20T08:21:26.119Z,97248.31
2023-01-20T08:23:55.434Z,97251.03
2023-01-20T08:26:24.607Z,97257.88
2023-01-20T08:28:52.129Z,97258.09
2023-01-20T08:31:21.690Z,97261.28
2023-01-20T08:33:49.000Z,97255.88
2023-01-20T08:36:19.256Z,97257.09
2023-01-20T08:38:47.413Z,97264.44
2023-01-20T08:41:17.666Z,97256.28
2023-01-20T08:43:44.599Z,97260.81
2023-01-20T08:46:14.074Z,97267.16
2023-01-20T08:48:42.521Z,97276.97
2023-01-20T08:51:15.898Z,97280.97
2023-01-20T08:53:43.179Z,97294.63
2023-01-20T08:56:11.209Z,97299.25
2023-01-20T08:58:38.127Z,97298.03
2023-01-20T09:01:12.714Z,97296.53
2023-01-20T09:03:40.107Z,97296.06
2023-01-20T09:06:10.827Z,97299.22
2023-01-20T09:08:38.303Z,97308.78
2023-01-20T09:11:10.518Z,97311.72
2023-01-20T09:13:37.763Z,97307.50
2023-01-20T09:16:05.029Z,97312.91
2023-01-20T09:18:32.613Z,97318.75
2023-01-20T09:21:00.090Z,97320.03
2023-01-20T09:23:26.852Z,97320.25
2023-01-20T09:25:53.666Z,97327.81
2023-01-20T09:28:20.352Z,97327.56
2023-01-20T09:30:47.032Z,97328.03
2023-01-20T09:33:13.850Z,97332.16
2023-01-20T09:35:40.652Z,97337.03
2023-01-20T09:38:25.953Z,97333.66
2023-01-20T09:41:35.919Z,97338.31
2023-01-20T09:44:42.333Z,97336.81
2023-01-20T09:47:38.741Z,97339.25
2023-01-20T09:50:43.976Z,97340.19
2023-01-20T09:53:39.495Z,97345.28
2023-01-20T09:56:14.116Z,97337.22
2023-01-20T09:59:06.967Z,97330.16
2023-01-20T10:01:36.665Z,97331.81
2023-01-20T10:04:38.274Z,97338.41
2023-01-20T10:07:16.575Z,97330.06
2023-01-20T10:10:03.260Z,97326.19
2023-01-20T10:12:39.090Z,97336.53
2023-01-20T10:15:12.497Z,97329.28
2023-01-20T10:18:02.427Z,97336.25
2023-01-20T10:20:40.694Z,97341.84
2023-01-20T10:23:42.949Z,97327.97
2023-01-20T10:26:30.319Z,97333.16
2023-01-20T10:29:02.293Z,97325.47
2023-01-20T10:31:33.468Z,97325.69
2023-01-20T10:34:09.000Z,97321.75
2023-01-20T10:36:36.136Z,97319.19
2023-01-20T10:39:10.945Z,97324.59
2023-01-20T10:41:51.673Z,97310.94
2023-01-20T10:44:18.419Z,97312.25
2023-01-20T10:47:41.231Z,97312.69
2023-01-20T10:50:31.843Z,97313.91
2023-01-20T10:53:25.051Z,97318.13
2023-01-20T10:56:02.210Z,97324.22
2023-01-20T10:58:37.925Z,97321.59
2023-01-20T11:01:09.286Z,97317.63
2023-01-20T11:03:40.773Z,97324.38
2023-01-20T11:06:07.608Z,97324.28
2023-01-20T11:08:34.229Z,97319.38
2023-01-20T11:11:15.020Z,97320.78
2023-01-20T11:13:41.617Z,97322.41
2023-01-20T11:16:18.943Z,97324.13
2023-01-20T11:19:06.200Z,97316.84
2023-01-20T11:21:36.663Z,97324.84
2023-01-20T11:24:35.565Z,97330.25
2023-01-20T11:27:04.892Z,97323.19
2023-01-20T11:29:38.457Z,97322.59
2023-01-20T11:32:05.261Z,97323.84
2023-01-20T11:34:34.907Z,97318.16
2023-01-20T11:37:25.543Z,97317.41
2023-01-20T11:40:11.980Z,97316.94
2023-01-20T11:42:44.976Z,97315.66
2023-01-20T11:45:34.748Z,97314.91
2023-01-20T11:48:33.628Z,97315.88
2023-01-20T11:51:01.611Z,97319.06
2023-01-20T11:53:33.253Z,97314.41
2023-01-20T11:56:19.898Z,97318.91
2023-01-20T11:58:56.071Z,97308.91
2023-01-20T12:01:28.489Z,97312.44
2023-01-20T12:04:38.050Z,97312.63
2023-01-20T12:07:12.571Z,97307.78
2023-01-20T12:09:46.831Z,97305.38
2023-01-20T12:12:39.972Z,97312.69
2023-01-20T12:15:19.451Z,97313.34
2023-01-20T12:18:10.500Z,97307.25
2023-01-20T12:20:54.782Z,97313.16
2023-01-20T12:23:46.191Z,97322.41
2023-01-20T12:26:15.009Z,97316.53
2023-01-20T12:29:02.377Z,97320.00
2023-01-20T12:31:31.262Z,97319.28
2023-01-20T12:34:06.922Z,97322.13
2023-01-20T12:37:05.656Z,97327.72
2023-01-20T12:40:23.354Z,97326.22
2023-01-20T12:43:05.958Z,97332.38
2023-01-20T12:46:04.851Z,97328.91
2023-01-20T12:48:59.875Z,97338.22
2023-01-20T12:51:40.824Z,97343.41
2023-01-20T12:54:48.989Z,97342.22
2023-01-20T12:57:52.017Z,97335.00
2023-01-20T13:01:07.561Z,97342.53
2023-01-20T13:04:15.746Z,97334.09
2023-01-20T13:07:31.012Z,97342.28
2023-01-20T13:10:24.303Z,97345.88
2023-01-20T13:13:33.347Z,97344.19
2023-01-20T13:16:36.142Z,97345.44
2023-01-20T13:19:29.531Z,97349.84
2023-01-20T13:22:07.899Z,97347.16
2023-01-20T13:24:35.559Z,97359.19
2023-01-20T13:27:02.949Z,97362.94
2023-01-20T13:29:55.205Z,97360.25
2023-01-20T13:32:49.131Z,97367.50
2023-01-20T13:35:44.434Z,97367.03
2023-01-20T13:38:33.161Z,97375.34
2023-01-20T13:41:03.503Z,97367.56
2023-01-20T13:44:03.560Z,97372.94
2023-01-20T13:46:35.948Z,97376.13
2023-01-20T13:49:23.247Z,97379.50
2023-01-20T13:51:50.429Z,97381.94
2023-01-20T13:54:44.717Z,97378.25
2023-01-20T13:57:40.595Z,97379.19
2023-01-20T14:00:12.980Z,97374.84
2023-01-20T14:02:39.861Z,97387.09
2023-01-20T14:05:20.321Z,97386.31
2023-01-20T14:07:46.946Z,97385.84
2023-01-20T14:10:14.281Z,97390.50
2023-01-20T14:12:41.690Z,97392.69
2023-01-20T14:15:23.480Z,97390.00
2023-01-20T14:17:55.210Z,97390.25
2023-01-20T14:20:26.516Z,97398.06
2023-01-20T14:22:53.205Z,97394.13
2023-01-20T14:25:26.159Z,97396.09
2023-01-20T14:27:53.052Z,97391.44
2023-01-20T14:30:25.746Z,97395.13
2023-01-20T14:32:53.380Z,97402.22
2023-01-20T14:35:28.957Z,97401.03
2023-01-20T14:37:55.737Z,97404.44
2023-01-20T14:40:26.235Z,97410.56
2023-01-20T14:43:06.260Z,97407.88
2023-01-20T14:45:33.627Z,97419.88
2023-01-20T14:48:02.849Z,97416.44
2023-01-20T14:50:30.020Z,97419.13
2023-01-20T14:52:56.695Z,97422.56
2023-01-20T14:55:32.146Z,97419.13
2023-01-20T14:57:59.231Z,97432.31
2023-01-20T15:00:31.665Z,97425.25
2023-01-20T15:03:15.829Z,97434.53
2023-01-20T15:05:54.941Z,97436.00
2023-01-20T15:08:26.351Z,97436.25
2023-01-20T15:11:32.600Z,97437.69
2023-01-20T15:14:01.714Z,97442.34
2023-01-20T15:16:38.788Z,97449.44
2023-01-20T15:19:18.392Z,97452.63
2023-01-20T15:21:53.385Z,97459.69
2023-01-20T15:24:23.048Z,97466.53
2023-01-20T15:26:52.620Z,97460.91
2023-01-20T15:29:58.548Z,97465.56
2023-01-20T15:32:26.312Z,97473.84
2023-01-20T15:34:52.899Z,97477.53
2023-01-20T15:37:20.113Z,97478.50
2023-01-20T15:39:47.582Z,97477.53
2023-01-20T15:42:15.357Z,97486.56
2023-01-20T15:44:42.040Z,97485.56
2023-01-20T15:47:20.611Z,97483.16
2023-01-20T15:49:47.726Z,97480.47
2023-01-20T15:52:14.364Z,97497.31
2023-01-20T15:54:40.992Z,97482.66
2023-01-20T15:57:16.841Z,97493.63
2023-01-20T15:59:47.618Z,97494.59
2023-01-20T16:02:19.629Z,97501.44
2023-01-20T16:04:46.414Z,97496.78
2023-01-20T16:07:15.768Z,97490.91
2023-01-20T16:09:43.454Z,97500.19
2023-01-20T16:12:14.755Z,97498.25
2023-01-20T16:14:41.888Z,97501.91
2023-01-20T16:17:21.200Z,97510.19
2023-01-20T16:19:48.918Z,97509.44
2023-01-20T16:22:16.327Z,97512.13
2023-01-20T16:24:43.212Z,97513.56
2023-01-20T16:27:22.068Z,97506.28
2023-01-20T16:29:49.383Z,97508.00
2023-01-20T16:32:18.189Z,97510.16
2023-01-20T16:34:46.390Z,97509.19
2023-01-20T16:37:14.449Z,97517.28
2023-01-20T16:39:41.172Z,97520.22
2023-01-20T16:42:11.562Z,97520.44
2023-01-20T16:44:39.003Z,97522.16
2023-01-20T16:47:06.617Z,97521.69
2023-01-20T16:49:33.240Z,97531.41
2023-01-20T16:52:00.109Z,97535.56
2023-01-20T16:54:26.693Z,97535.13
2023-01-20T16:56:53.302Z,97535.34
2023-01-20T16:59:19.938Z,97533.16
2023-01-20T17:01:49.778Z,97539.97
2023-01-20T17:04:16.744Z,97540.00
2023-01-20T17:06:43.409Z,97546.56
2023-01-20T17:09:10.061Z,97544.34
2023-01-20T17:11:38.759Z,97540.00
2023-01-20T17:14:07.193Z,97537.09
2023-01-20T17:16:34.404Z,97543.19
2023-01-20T17:19:01.768Z,97540.00
2023-01-20T17:21:30.545Z,97541.22
2023-01-20T17:24:00.391Z,97547.31
2023-01-20T17:26:27.210Z,97551.47
2023-01-20T17:28:55.852Z,97548.28
2023-01-20T17:31:22.954Z,97543.88
2023-01-20T17:33:50.586Z,97550.72
2023-01-20T17:36:17.566Z,97543.41
2023-01-20T17:38:44.816Z,97561.19
2023-01-20T17:41:12.974Z,97557.31
2023-01-20T17:43:46.473Z,97553.41
2023-01-20T17:46:25.133Z,97551.94
2023-01-20T17:48:51.711Z,97560.25
2023-01-20T17:51:20.998Z,97566.84
2023-01-20T17:53:48.443Z,97567.84
2023-01-20T17:56:17.461Z,97568.28
2023-01-20T17:58:45.765Z,97574.63
2023-01-20T18:01:27.482Z,97560.72
2023-01-20T18:03:56.527Z,97564.66
2023-01-20T18:06:24.394Z,97560.00
2023-01-20T18:08:56.435Z,97569.78
2023-01-20T18:11:27.082Z,97565.84
2023-01-20T18:13:56.119Z,97571.69
2023-01-20T18:16:26.462Z,97568.06
2023-01-20T18:18:58.379Z,97570.50
2023-01-20T18:21:31.072Z,97572.97
2023-01-20T18:23:58.687Z,97577.06
2023-01-20T18:26:29.570Z,97570.50
2023-01-20T18:28:58.522Z,97567.34
2023-01-20T18:31:27.055Z,97563.91
2023-01-20T18:33:55.825Z,97568.28
2023-01-20T18:36:26.055Z,97571.72
2023-01-20T18:38:58.696Z,97570.25
2023-01-20T18:41:26.856Z,97571.72
2023-01-20T18:43:53.763Z,97578.06
2023-01-20T18:46:20.736Z,97565.56
2023-01-20T18:48:48.984Z,97575.53
2023-01-20T18:51:17.844Z,97565.25
2023-01-20T18:53:45.748Z,97567.50
2023-01-20T18:56:15.240Z,97573.06
2023-01-20T18:58:47.026Z,97571.63
2023-01-20T19:01:19.803Z,97566.03
2023-01-20T19:03:47.632Z,97577.50
2023-01-20T19:06:22.656Z,97576.00
2023-01-20T19:08:49.824Z,97567.91
2023-01-20T19:11:22.775Z,97569.63
2023-01-20T19:13:51.702Z,97573.50
2023-01-20T19:16:19.999Z,97564.50
2023-01-20T19:18:51.965Z,97572.31
2023-01-20T19:21:18.737Z,97579.13
2023-01-20T19:23:49.902Z,97575.78
2023-01-20T19:26:18.718Z,97577.91
2023-01-20T19:28:47.027Z,97580.13
2023-01-20T19:31:19.287Z,97590.66
2023-01-20T19:33:46.312Z,97578.94
2023-01-20T19:36:15.901Z,97592.66
2023-01-20T19:38:43.030Z,97584.59
2023-01-20T19:41:18.916Z,97588.91
2023-01-20T19:43:46.222Z,97588.91
2023-01-20T19:46:17.572Z,97594.28
2023-01-20T19:48:44.721Z,97591.09
2023-01-20T19:51:16.053Z,97585.78
2023-01-20T19:53:44.235Z,97589.91
2023-01-20T19:56:13.615Z,97590.91
2023-01-20T19:58:41.757Z,97593.59
2023-01-20T20:01:15.345Z,97591.69
2023-01-20T20:03:42.568Z,97591.94
2023-01-20T20:06:31.572Z,97593.38
2023-01-20T20:09:16.391Z,97594.88
2023-01-20T20:11:43.417Z,97601.97
2023-01-20T20:14:13.996Z,97600.94
2023-01-20T20:16:41.138Z,97604.34
2023-01-20T20:19:09.908Z,97606.78
2023-01-20T20:21:36.583Z,97606.34
2023-01-20T20:24:05.375Z,97612.16
2023-01-20T20:26:35.330Z,97611.72
2023-01-20T20:29:03.561Z,97605.09
2023-01-20T20:31:30.403Z,97608.03
2023-01-20T20:33:58.978Z,97607.78
2023-01-20T20:36:28.294Z,97611.22
2023-01-20T20:38:55.746Z,97607.78
2023-01-20T20:41:22.521Z,97609.94
2023-01-20T20:43:49.140Z,97612.34
2023-01-20T20:46:16.499Z,97608.03
2023-01-20T20:48:43.313Z,97617.50
2023-01-20T20:51:15.946Z,97613.38
2023-01-20T20:53:43.591Z,97613.16
2023-01-20T20:56:13.415Z,97608.03
2023-01-20T20:58:55.568Z,97606.97
2023-01-20T21:01:27.770Z,97605.75
2023-01-20T21:03:57.471Z,97606.72
2023-01-20T21:06:24.158Z,97608.22
2023-01-20T21:08:50.818Z,97603.56
2023-01-20T21:11:18.491Z,97608.72
2023-01-20T21:13:45.166Z,97612.13
2023-01-20T21:16:14.922Z,97617.50
2023-01-20T21:18:41.768Z,97615.56
2023-01-20T21:21:13.375Z,97612.13
2023-01-20T21:23:43.261Z,97617.72
2023-01-20T21:26:12.745Z,97616.81
2023-01-20T21:28:39.959Z,97622.41
2023-01-20T21:31:11.418Z,97625.31
2023-01-20T21:33:38.939Z,97625.53
2023-01-20T21:36:07.298Z,97625.09
2023-01-20T21:38:34.052Z,97626.78
2023-01-20T21:41:09.947Z,97631.41
2023-01-20T21:43:57.125Z,97628.00
2023-01-20T21:46:24.638Z,97629.41
2023-01-20T21:49:10.015Z,97628.19
2023-01-20T21:51:55.641Z,97633.53
2023-01-20T21:54:22.359Z,97631.84
2023-01-20T21:56:51.161Z,97632.56
2023-01-20T21:59:18.140Z,97641.13
2023-01-20T22:01:44.810Z,97638.91
2023-01-20T22:04:11.454Z,97636.28
2023-01-20T22:06:38.076Z,97638.91
2023-01-20T22:09:04.930Z,97635.00
2023-01-20T22:11:31.565Z,97637.72
2023-01-20T22:13:58.432Z,97633.81
2023-01-20T22:16:26.050Z,97634.03
2023-01-20T22:18:53.841Z,97636.66
2023-01-20T22:21:22.152Z,97640.88
2023-01-20T22:23:48.952Z,97646.00
2023-01-20T22:26:15.586Z,97647.44
2023-01-20T22:28:42.735Z,97651.41
2023-01-20T22:31:14.815Z,97651.63
2023-01-20T22:33:41.464Z,97639.19
2023-01-20T22:36:08.614Z,97644.09
2023-01-20T22:38:35.280Z,97639.47
2023-01-20T22:41:06.689Z,97641.88
2023-01-20T22:43:35.070Z,97636.00
2023-01-20T22:46:02.923Z,97647.50
2023-01-20T22:48:34.009Z,97637.22
2023-01-20T22:51:12.209Z,97643.53
2023-01-20T22:53:39.535Z,97637.72
2023-01-20T22:56:12.422Z,97641.41
2023-01-20T22:58:39.372Z,97635.78
2023-01-20T23:01:12.707Z,97637.00
2023-01-20T23:03:39.548Z,97642.84
2023-01-20T23:06:06.449Z,97646.50
2023-01-20T23:08:33.120Z,97643.16
2023-01-20T23:11:04.481Z,97645.28
2023-01-20T23:13:31.279Z,97643.59
2023-01-20T23:15:57.915Z,97642.41
2023-01-20T23:18:25.096Z,97645.59
2023-01-20T23:20:53.396Z,97640.47
2023-01-20T23:23:21.666Z,97641.63
2023-01-20T23:25:48.396Z,97642.66
2023-01-20T23:28:15.382Z,97644.78
2023-01-20T23:30:42.428Z,97641.91
2023-01-20T23:33:09.962Z,97645.59
2023-01-20T23:35:39.052Z,97648.75
2023-01-20T23:38:06.890Z,97653.66
2023-01-20T23:40:36.181Z,97652.66
2023-01-20T23:43:02.933Z,97650.97
2023-01-20T23:45:29.651Z,97649.94
2023-01-20T23:47:56.338Z,97650.19
2023-01-20T23:50:22.996Z,97656.34
2023-01-20T23:52:49.619Z,97653.88
2023-01-20T23:55:16.344Z,97655.13
2023-01-20T23:57:42.987Z,97645.84
